Catàleg de serveis del Meteocat

Dades de l'estació automàtica Sant Llorenç Savall

?
?
Resum diari 23:00 TU
Dades diàries de l'estació meteorològica
Temperatura mitjana 7.7 °C
Temperatura màxima 9.8 °C 13:48 TU
Temperatura mínima 6.0 °C 6:39 TU
Humitat relativa mitjana 96%
Precipitació acumulada 5.3 mm
Ratxa màxima del vent (10 m) 26.6 km/h - 75º 19:03 TU

El tram horari està expressat en Temps Universal (TU). Cal sumar una hora en horari d'hivern i dues en horari d'estiu per passar a l'hora oficial.

Sant Llorenç Savall

Metadades estació meteorol´gica
Municipi Sant Llorenç Savall
Comarca Vallès Occidental
Altitud 528 m
Data alta 25.03.1998
Estat actual Operativa
Dades de període
Període
TU
TM
°C
TX
°C
TN
°C
HRM
%
PPT
mm
VVM (10 m)
km/h
DVM (10 m)
graus
VVX (10 m)
km/h
00:00 - 00:30 6.7 6.8 6.5 99 0.0 0.4 109 2.2
00:30 - 01:00 6.5 6.6 6.5 99 0.1 0.7 117 3.6
01:00 - 01:30 6.4 6.5 6.3 99 0.0 0.4 328 3.2
01:30 - 02:00 6.3 6.4 6.3 99 0.0 0.4 71 3.2
02:00 - 02:30 6.4 6.4 6.3 99 0.0 0.7 267 4.3
02:30 - 03:00 6.5 6.5 6.4 99 0.0 0.7 275 4.0
03:00 - 03:30 6.4 6.5 6.4 99 0.0 1.1 276 4.7
03:30 - 04:00 6.5 6.5 6.4 99 0.0 0.7 15 4.7
04:00 - 04:30 6.4 6.5 6.4 99 0.1 1.1 279 5.4
04:30 - 05:00 6.3 6.4 6.3 99 0.0 1.8 294 7.2
05:00 - 05:30 6.4 6.4 6.3 99 0.0 1.1 327 3.6
05:30 - 06:00 6.3 6.4 6.1 99 0.0 1.4 40 7.9
06:00 - 06:30 6.1 6.1 6.0 99 0.0 0.7 295 4.7
06:30 - 07:00 6.0 6.1 6.0 99 0.0 1.8 351 7.2
07:00 - 07:30 6.3 6.7 6.1 99 0.0 1.4 48 7.6
07:30 - 08:00 6.9 7.2 6.7 99 0.0 0.4 301 4.7
08:00 - 08:30 7.4 7.6 7.2 99 0.0 0.4 226 2.9
08:30 - 09:00 7.6 7.7 7.6 98 0.0 0.4 227 2.5
09:00 - 09:30 8.2 8.5 7.8 96 0.1 0.7 313 4.0
09:30 - 10:00 8.6 8.8 8.4 94 0.0 1.1 86 4.7
10:00 - 10:30 8.7 8.8 8.5 94 0.0 3.6 89 8.3
10:30 - 11:00 9.1 9.2 8.9 94 0.2 2.5 100 9.4
11:00 - 11:30 9.0 9.2 8.9 94 0.1 3.6 92 8.3
11:30 - 12:00 9.3 9.4 9.2 94 0.0 0.0 141 2.2
12:00 - 12:30 9.4 9.5 9.3 93 0.0 1.1 253 4.7
12:30 - 13:00 9.5 9.6 9.4 92 0.0 0.7 282 4.7
13:00 - 13:30 9.5 9.7 9.4 92 0.0 1.4 58 6.5
13:30 - 14:00 9.7 9.8 9.6 92 0.0 1.1 112 6.5
14:00 - 14:30 9.7 9.8 9.6 91 0.0 0.7 62 5.0
14:30 - 15:00 9.6 9.8 9.5 91 0.0 3.2 81 8.3
15:00 - 15:30 9.6 9.7 9.5 93 0.0 0.7 257 3.6
15:30 - 16:00 9.6 9.6 9.4 95 0.0 0.0 283 0.0
16:00 - 16:30 9.2 9.4 9.1 97 0.0 0.4 283 2.2
16:30 - 17:00 8.7 9.0 8.4 98 0.0 0.4 283 2.2
17:00 - 17:30 8.1 8.4 8.0 98 0.0 0.4 297 3.2
17:30 - 18:00 8.1 8.3 8.1 99 0.0 0.7 60 3.6
18:00 - 18:30 8.2 8.4 8.1 99 0.0 0.7 336 6.5
18:30 - 19:00 8.3 8.8 7.8 97 1.3 6.8 42 25.9
19:00 - 19:30 7.8 8.2 7.4 91 3.2 7.6 106 26.6
19:30 - 20:00 7.2 7.4 7.2 98 0.2 1.1 23 5.0
20:00 - 20:30 7.1 7.2 6.9 99 0.0 1.1 107 4.7
20:30 - 21:00 6.7 7.4 6.6 99 0.0 2.2 67 9.7
21:00 - 21:30 7.6 8.2 7.2 93 0.0 3.6 63 11.2
21:30 - 22:00 7.2 7.3 7.0 95 0.0 4.0 68 12.6
22:00 - 22:30 7.0 7.1 6.8 95 0.0 2.9 86 10.8
22:30 - 23:00 7.2 8.1 6.6 92 0.0 4.3 269 16.6
23:00 - 23:30 8.0 8.1 7.8 86 0.0 5.4 285 16.9

Les dades en taronja només han passat un control de qualitat automàtic. Resta pendent la seva validació definitiva.